Sim-Planet VA

Sim-Planet Nouvel Horizon. By: Anthony Pay
Since 2020.




 METAR ET TAF INFORMATION
METAR FOR LDSP
ADDS - METARS form results

(1941 UTC 28 January 2022)
Data provider http://aviationweather.gov/metar/data/
 
METAR text: LDSP 281930Z 36009KT CAVOK 08/M06 Q1026 NOSIG
Conditions at: LDSP (SPLIT/KASTEL STA, HR) observed 1930 UTC 28 January 2022
Temperature: 8.0°C (46°F)
Dewpoint: -6.0°C (21°F) [RH = 36%]
Pressure (altimeter): 30.30 inches Hg (1026.0 mb)
Winds: from the N (360 degrees) at 10 MPH (9 knots; 4.6 m/s)
Visibility: 6 or more miles (10+ km)
Ceiling: ceiling and visibility are OK
Clouds: unknown
Weather: no significant weather observed at this time

METAR text: LDSP 281900Z 02014KT CAVOK 08/M05 Q1025 NOSIG
Conditions at: LDSP (SPLIT/KASTEL STA, HR) observed 1900 UTC 28 January 2022
Temperature: 8.0°C (46°F)
Dewpoint: -5.0°C (23°F) [RH = 39%]
Pressure (altimeter): 30.27 inches Hg (1025.0 mb)
Winds: from the NNE (20 degrees) at 16 MPH (14 knots; 7.2 m/s)
Visibility: 6 or more miles (10+ km)
Ceiling: ceiling and visibility are OK
Clouds: unknown
Weather: no significant weather observed at this time

Forecast for: AMD
Text: TAF AMD LDSP 281849Z 2818/2918 35009KT CAVOK TX11/2913Z TN04/2906Z
Forecast period: 1800 UTC 28 January 2022 to 1800 UTC 29 January 2022
Forecast type: FROM: standard forecast or significant change
Winds: from the N (350 degrees) at 10 MPH (9 knots; 4.6 m/s)
Visibility: 6 or more miles (10+ km)
Ceiling: unknown
Clouds: missing
Weather: no significant weather forecast for this period
Text: TEMPO 2819/2906 02015KT
Forecast period: 1900 UTC 28 January 2022 to 0600 UTC 29 January 2022
Forecast type: TEMPORARY: The following changes expected for less than half the time period
Winds: from the NNE (20 degrees) at 17 MPH (15 knots; 7.7 m/s)
Visibility: missing
Ceiling: unknown
Clouds: missing
Weather: no significant weather forecast for this period

 AÉROPORT DE AÉROPORT

 INFORMATIONS DE PISTE
Piste 05 Longueur de la piste 8366 ft Largeur de la piste 148 ft
Élévation de la piste 70 ft Seuil de la piste déplacés 0 ft Runway heading 53
Piste 23 Longueur de la piste 8366 ft Largeur de la piste 148 ft
Élévation de la piste 50 ft Seuil de la piste déplacés 525 ft Runway heading 233

 AÉROPORT FRÉQUENCES
Type APP Nom APP Féquence 120.875 MHZ
Type INFO Nom INFO Féquence 128.675 MHZ
Type TWR Nom TWR Féquence 124.675 MHZ

 SIDA DE NAVIGATION
Type NDB Nom Drvenik Féquence 418 KHZ
Type VOR-DME Nom Split Féquence 115700 KHZ
Type NDB Nom Trogir Féquence 378 KHZ

Nos Partenaires